Time;durP1;ratioP1;P1;durP2;ratioP2;P2;SDS_P1;SDS_P2;PMS_P1;PMS_P2;Temp;Humidity;BMP_temperature;BMP_pressure;BME280_temperature;BME280_humidity;BME280_pressure;Samples;Min_cycle;Max_cycle;Signal;HPM_P1;HPM_P2
2022/05/18 00:00:30;;;;;;;2.50;1.20;;;;;;;11.54;51.66;102429.94;4884324;29;20080;-79
2022/05/18 00:02:59;;;;;;;1.75;1.13;;;;;;;11.54;53.88;102429.94;4901221;29;20032;-79
2022/05/18 00:05:25;;;;;;;3.42;1.20;;;;;;;11.40;55.70;102401.78;4884333;29;20032;-79
2022/05/18 00:07:50;;;;;;;4.68;1.70;;;;;;;11.67;58.27;102441.09;4899694;29;20043;-79
2022/05/18 00:10:16;;;;;;;2.03;1.30;;;;;;;11.70;60.61;102440.75;4901457;29;20025;-79
2022/05/18 00:12:47;;;;;;;5.75;1.40;;;;;;;11.73;63.85;102437.72;4884397;29;20037;-79
2022/05/18 00:15:14;;;;;;;3.65;1.35;;;;;;;11.77;67.23;102440.94;4884509;29;20028;-80
2022/05/18 00:17:40;;;;;;;2.47;1.30;;;;;;;11.75;69.42;102445.63;4886846;29;20066;-79
2022/05/18 00:20:07;;;;;;;5.18;1.70;;;;;;;11.72;72.03;102430.66;4888784;29;20025;-79
2022/05/18 00:22:32;;;;;;;3.55;1.50;;;;;;;11.59;73.64;102414.13;4905035;29;20020;-79
2022/05/18 00:25:01;;;;;;;5.15;1.30;;;;;;;11.65;75.95;102426.91;4873262;29;20473;-79
2022/05/18 00:27:26;;;;;;;4.55;1.23;;;;;;;11.82;77.14;102449.38;4899867;29;20451;-79
2022/05/18 00:29:51;;;;;;;2.38;0.90;;;;;;;11.84;76.64;102457.28;4852161;29;20043;-79
2022/05/18 00:32:17;;;;;;;5.57;1.17;;;;;;;11.88;76.44;102453.28;4883190;29;20375;-79
2022/05/18 00:34:42;;;;;;;4.60;0.98;;;;;;;11.84;75.53;102444.66;4899510;29;20460;-78
2022/05/18 00:37:08;;;;;;;5.30;0.80;;;;;;;11.99;74.79;102461.06;4881835;29;20104;-79
2022/05/18 00:39:34;;;;;;;2.60;0.95;;;;;;;12.06;74.00;102466.63;4883770;29;20041;-79
2022/05/18 00:42:00;;;;;;;3.47;0.85;;;;;;;12.06;73.33;102450.44;4897050;29;20075;-79
2022/05/18 00:44:25;;;;;;;8.18;1.08;;;;;;;12.17;72.96;102456.31;4868824;29;20033;-79
2022/05/18 00:46:50;;;;;;;3.63;0.73;;;;;;;12.16;72.82;102464.59;4883629;29;20387;-79
2022/05/18 00:49:16;;;;;;;5.43;1.00;;;;;;;12.07;73.08;102442.16;4899720;29;20036;-79
2022/05/18 00:51:51;;;;;;;5.28;1.00;;;;;;;12.16;73.09;102461.91;4883376;29;20071;-79
2022/05/18 00:54:30;;;;;;;5.22;1.00;;;;;;;12.19;74.99;102469.66;4883972;29;20020;-79
2022/05/18 00:57:08;;;;;;;3.78;0.73;;;;;;;12.11;76.30;102459.69;4900396;29;20475;-79
2022/05/18 01:00:08;;;;;;;3.30;0.80;;;;;;;12.11;75.17;102457.00;4883150;29;20367;-79
2022/05/18 01:02:38;;;;;;;2.17;0.70;;;;;;;12.11;76.26;102467.78;4852699;29;20127;-79
2022/05/18 01:05:08;;;;;;;3.00;0.98;;;;;;;12.17;77.66;102477.91;4882744;29;20108;-78
2022/05/18 01:07:39;;;;;;;5.88;0.93;;;;;;;12.15;79.59;102481.78;4900342;29;20028;-79
2022/05/18 01:10:06;;;;;;;5.32;1.00;;;;;;;12.17;81.94;102477.91;4882541;29;20028;-79
2022/05/18 01:12:31;;;;;;;4.78;1.45;;;;;;;12.10;83.24;102493.09;4882102;29;20166;-79
2022/05/18 01:15:02;;;;;;;4.50;1.40;;;;;;;12.04;84.10;102474.03;4881510;29;20481;-79
2022/05/18 01:17:31;;;;;;;5.72;1.20;;;;;;;11.89;84.76;102472.00;4899094;29;20406;-79
2022/05/18 01:19:59;;;;;;;4.00;1.42;;;;;;;11.79;84.13;102465.03;4899573;29;20686;-79
2022/05/18 01:22:33;;;;;;;4.10;1.10;;;;;;;11.84;85.45;102487.84;4882515;29;20727;-79
2022/05/18 01:25:26;;;;;;;3.13;0.95;;;;;;;11.76;86.89;102480.53;4898552;29;20415;-79
2022/05/18 01:27:52;;;;;;;6.15;1.10;;;;;;;11.65;87.14;102475.44;4893787;29;20024;-79
2022/05/18 01:30:19;;;;;;;8.90;1.30;;;;;;;11.66;87.16;102487.09;4882364;29;20024;-79
2022/05/18 01:32:48;;;;;;;4.82;1.20;;;;;;;11.58;87.01;102489.75;4900385;29;20099;-79
2022/05/18 01:35:18;;;;;;;5.03;1.20;;;;;;;11.47;85.97;102486.38;4898961;29;20341;-79
2022/05/18 01:37:43;;;;;;;3.22;0.90;;;;;;;11.44;84.92;102500.16;4882644;29;20032;-79
2022/05/18 01:40:19;;;;;;;4.93;0.95;;;;;;;11.34;83.76;102483.28;4882619;29;20058;-79
2022/05/18 01:42:50;;;;;;;4.32;0.95;;;;;;;11.32;82.92;102489.84;4882034;29;20060;-79
2022/05/18 01:45:16;;;;;;;4.80;1.48;;;;;;;11.25;82.04;102492.34;4899458;29;20107;-79
2022/05/18 01:47:41;;;;;;;4.15;1.05;;;;;;;11.25;80.78;102490.50;4899748;29;20128;-79
2022/05/18 01:50:20;;;;;;;4.15;1.20;;;;;;;11.28;80.84;102500.94;4866831;29;20032;-79
2022/05/18 01:52:45;;;;;;;5.43;0.98;;;;;;;11.17;80.86;102492.31;4893009;29;20017;-78
2022/05/18 01:55:10;;;;;;;5.47;1.30;;;;;;;11.05;81.41;102472.91;4880757;29;20044;-80
2022/05/18 01:57:36;;;;;;;8.57;1.15;;;;;;;11.19;80.93;102503.75;4864686;29;20092;-79
2022/05/18 02:00:06;;;;;;;7.25;1.48;;;;;;;11.14;81.86;102504.25;4883959;29;20425;-79
2022/05/18 02:02:31;;;;;;;7.03;1.10;;;;;;;11.11;82.43;102501.06;4878960;29;20466;-80
2022/05/18 02:04:57;;;;;;;3.30;1.10;;;;;;;11.09;81.53;102501.19;4897609;29;20148;-79
2022/05/18 02:07:22;;;;;;;3.60;1.00;;;;;;;11.09;81.50;102505.75;4895866;29;20456;-79
2022/05/18 02:09:47;;;;;;;5.40;1.40;;;;;;;11.07;82.18;102516.69;4883331;29;20120;-79
2022/05/18 02:12:13;;;;;;;4.43;1.10;;;;;;;11.07;81.73;102505.06;4898161;29;20092;-79
2022/05/18 02:14:38;;;;;;;7.78;1.10;;;;;;;10.98;81.84;102502.31;4867266;29;20032;-79
2022/05/18 02:17:04;;;;;;;3.78;1.10;;;;;;;10.95;81.70;102493.72;4898799;29;20028;-78
2022/05/18 02:19:30;;;;;;;6.30;1.10;;;;;;;11.05;81.79;102511.44;4881829;29;20123;-79
2022/05/18 02:21:55;;;;;;;5.72;1.10;;;;;;;11.04;81.94;102512.47;4882470;29;20024;-79
2022/05/18 02:24:20;;;;;;;7.38;1.08;;;;;;;10.87;82.01;102494.53;4883039;29;20040;-79
2022/05/18 02:26:46;;;;;;;5.47;1.33;;;;;;;10.87;82.26;102491.00;4881730;29;20990;-79
2022/05/18 02:29:11;;;;;;;3.00;1.23;;;;;;;10.93;82.77;102510.06;4898917;29;20032;-79
2022/05/18 02:31:38;;;;;;;6.22;1.40;;;;;;;10.75;82.76;102476.94;4882514;29;20028;-79
2022/05/18 02:34:04;;;;;;;5.88;1.52;;;;;;;10.83;83.06;102493.16;4905101;29;20025;-79
2022/05/18 02:36:30;;;;;;;3.53;1.35;;;;;;;10.92;83.03;102494.03;4898570;29;20033;-79
2022/05/18 02:38:55;;;;;;;5.28;1.10;;;;;;;10.87;83.08;102497.22;4881901;29;20043;-79
2022/05/18 02:41:21;;;;;;;2.55;1.00;;;;;;;10.92;82.78;102511.03;4898300;29;20099;-79
2022/05/18 02:43:46;;;;;;;7.28;1.83;;;;;;;10.96;82.42;102511.56;4898828;29;20157;-79
2022/05/18 02:46:16;;;;;;;2.53;0.90;;;;;;;10.98;82.97;102512.25;4896578;29;20047;-79
2022/05/18 02:48:42;;;;;;;4.85;1.20;;;;;;;10.90;83.43;102509.53;4881126;29;20482;-79
2022/05/18 02:51:09;;;;;;;4.00;1.05;;;;;;;10.97;83.05;102513.28;4882712;29;20045;-79
2022/05/18 02:53:34;;;;;;;3.83;1.20;;;;;;;10.97;82.91;102514.13;4881336;29;20024;-79
2022/05/18 02:56:06;;;;;;;4.72;1.13;;;;;;;10.95;82.10;102509.88;4865810;29;20028;-79
2022/05/18 02:58:39;;;;;;;4.22;1.40;;;;;;;10.81;82.38;102479.84;4898751;29;20029;-79
2022/05/18 03:01:13;;;;;;;4.88;1.25;;;;;;;10.76;81.95;102467.84;4897180;29;20355;-79
2022/05/18 03:03:39;;;;;;;3.90;1.10;;;;;;;11.12;81.53;102500.03;4895511;29;20060;-79
2022/05/18 03:06:07;;;;;;;5.28;1.38;;;;;;;11.51;79.84;102511.16;4897282;29;20024;-78
2022/05/18 03:08:34;;;;;;;5.07;1.30;;;;;;;11.97;77.66;102506.22;4898437;29;20024;-79
2022/05/18 03:11:01;;;;;;;6.20;1.30;;;;;;;12.19;76.13;102496.66;4897926;29;20033;-78
2022/05/18 03:13:26;;;;;;;4.60;1.08;;;;;;;12.61;74.75;102515.31;4881866;29;20115;-79
2022/05/18 03:15:52;;;;;;;5.13;1.08;;;;;;;12.84;73.39;102522.72;4880685;29;20115;-79
2022/05/18 03:18:18;;;;;;;3.60;1.00;;;;;;;12.98;71.17;102497.72;4900175;29;20036;-79
2022/05/18 03:23:33;;;;;;;2.97;0.90;;;;;;;13.55;67.87;102513.72;4882837;29;20044;-79
2022/05/18 03:26:00;;;;;;;7.03;1.35;;;;;;;13.76;66.23;102514.97;4897566;29;20025;-79
2022/05/18 03:28:25;;;;;;;3.28;1.10;;;;;;;13.79;65.61;102514.59;4893241;29;20035;-79
2022/05/18 03:30:50;;;;;;;2.40;0.85;;;;;;;14.05;64.26;102509.69;4885587;29;20033;-79
2022/05/18 03:33:16;;;;;;;4.47;1.00;;;;;;;14.19;62.51;102489.09;4866415;29;20032;-79
2022/05/18 03:35:41;;;;;;;3.35;1.00;;;;;;;14.45;61.28;102514.97;4900441;29;20036;-79
2022/05/18 03:38:06;;;;;;;2.15;0.88;;;;;;;14.80;59.62;102516.16;4881624;29;20376;-78
2022/05/18 03:40:37;;;;;;;7.07;1.30;;;;;;;15.11;58.42;102516.00;4849396;29;20033;-78
2022/05/18 03:43:03;;;;;;;3.05;0.80;;;;;;;15.15;57.54;102511.03;4865662;29;20049;-78
2022/05/18 03:45:29;;;;;;;2.83;0.90;;;;;;;15.34;56.86;102510.47;4898213;29;20119;-79
2022/05/18 03:47:55;;;;;;;2.58;1.10;;;;;;;15.38;55.98;102490.06;4890691;29;20076;-80
2022/05/18 03:50:22;;;;;;;3.63;1.10;;;;;;;15.62;54.91;102520.59;4882711;29;20032;-79
2022/05/18 03:52:47;;;;;;;2.58;0.77;;;;;;;15.83;54.28;102517.13;4890101;29;20031;-79
2022/05/18 03:55:12;;;;;;;5.15;1.30;;;;;;;16.04;53.13;102524.44;4874155;29;20431;-79
2022/05/18 03:57:39;;;;;;;3.90;1.00;;;;;;;16.18;52.64;102512.66;4898420;29;20028;-78
2022/05/18 04:00:06;;;;;;;2.83;0.82;;;;;;;16.37;52.02;102517.44;4901126;29;20024;-79
2022/05/18 04:02:32;;;;;;;3.88;0.90;;;;;;;16.44;51.62;102517.50;4880024;29;20051;-79
2022/05/18 04:04:57;;;;;;;2.42;1.00;;;;;;;16.58;51.26;102522.00;4900090;29;20028;-78
2022/05/18 04:07:22;;;;;;;5.72;1.48;;;;;;;16.86;50.50;102521.22;4900608;29;20033;-79
2022/05/18 04:09:48;;;;;;;2.58;0.88;;;;;;;17.06;49.67;102526.78;4900677;29;20032;-77
2022/05/18 04:12:14;;;;;;;2.95;0.98;;;;;;;17.18;49.10;102503.38;4871051;29;20032;-80
2022/05/18 04:14:39;;;;;;;3.30;1.10;;;;;;;17.35;48.67;102523.78;4895629;29;20096;-79
2022/05/18 04:17:05;;;;;;;5.43;1.25;;;;;;;17.36;48.68;102520.00;4859335;29;20040;-80
2022/05/18 04:19:30;;;;;;;3.58;1.10;;;;;;;17.51;48.15;102527.19;4898165;29;20435;-78
2022/05/18 04:21:56;;;;;;;2.55;1.00;;;;;;;17.51;48.46;102529.91;4881512;29;20052;-79
2022/05/18 04:24:22;;;;;;;5.03;1.35;;;;;;;17.69;48.11;102526.63;4897788;29;20067;-80
2022/05/18 04:26:47;;;;;;;2.25;1.00;;;;;;;17.69;47.50;102502.97;4888480;29;20032;-80
2022/05/18 04:29:13;;;;;;;2.70;0.85;;;;;;;17.88;47.33;102525.03;4883191;29;20036;-81
2022/05/18 04:31:38;;;;;;;4.63;1.00;;;;;;;17.68;47.49;102508.59;4868888;29;20028;-81
2022/05/18 04:34:04;;;;;;;3.10;0.80;;;;;;;17.43;47.85;102492.81;4864317;29;20170;-80
2022/05/18 04:36:29;;;;;;;3.13;1.13;;;;;;;17.49;47.92;102521.97;4867281;29;20477;-80
2022/05/18 04:38:55;;;;;;;6.72;1.13;;;;;;;17.57;47.52;102510.03;4882118;29;20114;-80
2022/05/18 04:41:20;;;;;;;2.53;1.00;;;;;;;17.85;47.06;102501.78;4896457;29;20059;-80
2022/05/18 04:43:45;;;;;;;2.85;0.90;;;;;;;17.75;47.32;102510.31;4887737;29;20028;-79
2022/05/18 04:46:11;;;;;;;3.78;1.20;;;;;;;18.00;46.91;102520.66;4901426;29;20040;-78
2022/05/18 04:48:36;;;;;;;2.78;0.90;;;;;;;18.12;46.67;102521.75;4880108;29;20462;-79
2022/05/18 04:51:05;;;;;;;4.78;1.02;;;;;;;18.30;46.22;102519.22;4885970;29;20032;-80
2022/05/18 04:53:31;;;;;;;2.47;1.05;;;;;;;18.08;46.47;102509.59;4901703;29;20041;-80
2022/05/18 04:55:57;;;;;;;2.05;0.80;;;;;;;18.07;46.37;102524.22;4894861;29;20029;-82
2022/05/18 04:58:22;;;;;;;1.17;0.85;;;;;;;18.26;45.96;102507.06;4890809;29;20124;-81
2022/05/18 05:00:57;;;;;;;3.53;1.02;;;;;;;18.12;46.28;102508.13;4891965;29;20060;-81
2022/05/18 05:03:22;;;;;;;2.45;0.90;;;;;;;17.92;46.68;102524.44;4906990;29;20028;-80
2022/05/18 05:05:47;;;;;;;3.22;1.08;;;;;;;17.65;47.54;102526.22;4865838;29;20039;-80
2022/05/18 05:08:13;;;;;;;2.70;1.00;;;;;;;17.36;47.89;102520.00;4867976;29;20032;-79
2022/05/18 05:10:38;;;;;;;3.58;1.10;;;;;;;17.06;48.03;102481.38;4883960;29;20041;-79
2022/05/18 05:13:03;;;;;;;2.70;1.00;;;;;;;17.48;47.44;102513.97;4868142;29;20036;-79
2022/05/18 05:15:29;;;;;;;1.98;0.90;;;;;;;17.46;47.39;102511.47;4867013;29;20047;-79
2022/05/18 05:17:54;;;;;;;3.60;1.42;;;;;;;17.49;47.82;102518.41;4865839;29;20135;-79
2022/05/18 05:20:19;;;;;;;4.30;1.20;;;;;;;17.45;47.54;102511.66;4868043;29;20267;-79
2022/05/18 05:22:45;;;;;;;4.18;1.35;;;;;;;17.12;48.21;102498.78;4901124;29;20029;-79
2022/05/18 05:25:10;;;;;;;3.22;1.35;;;;;;;17.02;48.92;102529.06;4885263;29;20050;-79
2022/05/18 05:27:36;;;;;;;1.83;1.00;;;;;;;16.70;49.31;102488.84;4886764;29;20501;-79
2022/05/18 05:30:03;;;;;;;4.82;1.17;;;;;;;16.87;49.34;102518.28;4885007;29;20112;-79
2022/05/18 05:32:29;;;;;;;2.75;1.20;;;;;;;16.94;49.24;102533.78;4879397;29;20053;-80
2022/05/18 05:34:54;;;;;;;7.70;1.20;;;;;;;16.83;49.96;102519.72;4867589;29;20024;-80
2022/05/18 05:37:19;;;;;;;3.35;1.08;;;;;;;16.24;50.96;102511.91;4901069;29;20060;-81
2022/05/18 05:39:45;;;;;;;2.38;1.02;;;;;;;15.96;52.81;102520.00;4902545;29;20032;-80
2022/05/18 05:42:10;;;;;;;6.40;1.00;;;;;;;15.88;53.32;102523.66;4898416;29;20045;-80
2022/05/18 05:44:35;;;;;;;2.25;1.00;;;;;;;15.86;53.78;102509.44;4901954;29;20069;-80
2022/05/18 05:47:04;;;;;;;8.35;1.40;;;;;;;15.79;54.08;102519.38;4855645;29;20047;-79
2022/05/18 05:49:30;;;;;;;3.92;1.38;;;;;;;15.91;53.85;102527.88;4897784;29;20063;-78
2022/05/18 05:51:55;;;;;;;7.20;1.10;;;;;;;15.79;53.84;102515.81;4898354;29;20455;-78
2022/05/18 05:54:21;;;;;;;4.47;1.27;;;;;;;15.83;54.16;102526.13;4899021;29;20060;-78
2022/05/18 05:56:47;;;;;;;3.83;1.13;;;;;;;16.02;53.77;102521.06;4881668;29;20051;-78
2022/05/18 05:59:13;;;;;;;3.78;1.10;;;;;;;16.14;53.60;102522.25;4897476;29;20385;-79
2022/05/18 06:01:39;;;;;;;4.07;1.10;;;;;;;16.19;53.63;102525.22;4864497;29;20486;-78
2022/05/18 06:04:07;;;;;;;5.45;1.15;;;;;;;16.13;53.91;102534.16;4900181;29;20036;-78
2022/05/18 06:06:37;;;;;;;4.00;1.20;;;;;;;16.12;53.79;102527.03;4876015;29;20092;-79
2022/05/18 06:09:03;;;;;;;6.45;1.60;;;;;;;15.86;53.34;102508.59;4892038;29;20032;-78
2022/05/18 06:11:29;;;;;;;2.45;1.02;;;;;;;15.87;53.45;102513.84;4878187;29;20099;-78
2022/05/18 06:13:54;;;;;;;2.78;0.90;;;;;;;15.58;52.90;102470.47;4901443;29;20353;-79
2022/05/18 06:16:19;;;;;;;4.28;1.00;;;;;;;15.86;52.95;102523.03;4863929;29;20044;-79
2022/05/18 06:18:45;;;;;;;2.88;1.10;;;;;;;15.98;53.04;102526.88;4897695;29;20037;-79
2022/05/18 06:21:10;;;;;;;4.53;1.20;;;;;;;16.03;51.74;102530.94;4882858;29;20039;-81
2022/05/18 06:23:36;;;;;;;4.53;1.10;;;;;;;15.92;51.90;102499.66;4903490;29;20067;-80
2022/05/18 06:26:05;;;;;;;5.13;1.05;;;;;;;15.87;51.64;102515.72;4890479;29;20040;-81
2022/05/18 06:28:31;;;;;;;2.38;0.90;;;;;;;15.92;51.40;102496.97;4888205;29;20695;-80
2022/05/18 06:30:57;;;;;;;5.50;1.10;;;;;;;16.03;51.72;102507.31;4887063;29;20123;-80
2022/05/18 06:33:30;;;;;;;5.05;1.00;;;;;;;15.89;50.90;102489.19;4869427;29;20037;-80
2022/05/18 06:35:55;;;;;;;4.53;0.90;;;;;;;15.72;50.31;102483.19;4888118;29;20028;-79
2022/05/18 06:38:21;;;;;;;3.28;0.80;;;;;;;16.02;50.40;102480.34;4884817;29;20056;-80
2022/05/18 06:43:31;;;;;;;3.67;1.30;;;;;;;16.21;49.83;102490.56;4898139;29;20059;-79
2022/05/18 06:45:58;;;;;;;5.20;1.40;;;;;;;16.35;49.24;102507.81;4884188;29;20123;-81
2022/05/18 06:48:23;;;;;;;3.03;1.00;;;;;;;16.53;48.95;102494.59;4905537;29;20039;-80
2022/05/18 06:50:49;;;;;;;2.25;0.90;;;;;;;16.41;49.08;102477.97;4874476;29;20025;-81
2022/05/18 06:53:14;;;;;;;4.05;0.88;;;;;;;16.56;48.66;102501.50;4872349;29;20032;-81
2022/05/18 06:55:40;;;;;;;2.63;1.10;;;;;;;16.40;49.00;102473.59;4896619;29;20036;-81
2022/05/18 06:58:05;;;;;;;3.85;1.05;;;;;;;16.45;49.03;102490.13;4876179;29;20037;-80
2022/05/18 07:00:31;;;;;;;2.72;0.90;;;;;;;16.40;48.69;102500.75;4906471;29;20047;-81
2022/05/18 07:02:56;;;;;;;3.50;1.00;;;;;;;16.28;48.63;102496.03;4908364;29;20064;-81
2022/05/18 07:05:22;;;;;;;4.28;1.00;;;;;;;16.41;48.93;102502.44;4860803;29;20463;-81
2022/05/18 07:07:47;;;;;;;3.05;1.15;;;;;;;16.30;49.20;102500.25;4904206;29;20040;-81
2022/05/18 07:10:12;;;;;;;3.85;1.00;;;;;;;16.35;47.96;102481.47;4905332;29;20072;-81
2022/05/18 07:12:38;;;;;;;3.13;0.90;;;;;;;16.47;48.10;102494.53;4905904;29;20039;-80
2022/05/18 07:15:05;;;;;;;4.95;0.98;;;;;;;16.72;48.26;102498.50;4883127;29;20040;-80
2022/05/18 07:17:31;;;;;;;4.88;1.30;;;;;;;16.84;47.95;102490.66;4872510;29;20071;-81
2022/05/18 07:19:56;;;;;;;5.90;0.90;;;;;;;16.95;47.78;102470.19;4889458;29;20037;-80
2022/05/18 07:22:22;;;;;;;5.55;1.10;;;;;;;16.99;47.53;102482.38;4885500;29;20036;-81
2022/05/18 07:24:47;;;;;;;4.35;1.02;;;;;;;17.02;46.54;102479.22;4909947;29;20474;-81
2022/05/18 07:27:12;;;;;;;4.03;1.08;;;;;;;16.82;46.99;102479.97;4905592;29;20075;-80
2022/05/18 07:29:38;;;;;;;7.65;1.10;;;;;;;16.66;46.93;102466.66;4885426;29;20035;-80
2022/05/18 07:32:12;;;;;;;2.72;1.27;;;;;;;16.77;47.30;102470.75;4874377;29;20032;-80
2022/05/18 07:34:38;;;;;;;3.30;0.77;;;;;;;16.83;47.21;102470.78;4891867;29;20372;-81
2022/05/18 07:37:05;;;;;;;3.85;1.08;;;;;;;16.73;47.30;102466.72;4908522;29;20462;-80
2022/05/18 07:39:31;;;;;;;5.43;0.95;;;;;;;16.68;46.94;102475.44;4872690;29;20032;-80
2022/05/18 07:41:58;;;;;;;3.22;1.00;;;;;;;16.57;46.88;102455.09;4887281;29;20047;-80
2022/05/18 07:44:24;;;;;;;3.35;0.90;;;;;;;16.80;46.77;102470.34;4874988;29;20116;-80
2022/05/18 07:46:49;;;;;;;7.30;0.90;;;;;;;16.90;46.81;102468.94;4891993;29;20063;-80
2022/05/18 07:49:15;;;;;;;5.97;1.02;;;;;;;17.11;46.54;102470.72;4908365;29;20479;-80
2022/05/18 07:51:41;;;;;;;4.65;1.02;;;;;;;17.09;46.69;102439.34;4890865;29;20063;-80
2022/05/18 07:54:06;;;;;;;2.03;1.00;;;;;;;17.12;45.79;102461.53;4876793;29;20063;-81
2022/05/18 07:56:34;;;;;;;3.90;0.90;;;;;;;17.11;45.59;102456.28;4896617;29;20467;-80
2022/05/18 07:59:00;;;;;;;2.90;1.00;;;;;;;16.99;45.50;102428.00;4910428;29;20032;-81
2022/05/18 08:01:25;;;;;;;3.97;1.00;;;;;;;17.08;45.10;102441.19;4873217;29;20092;-79
2022/05/18 08:03:52;;;;;;;6.10;0.90;;;;;;;17.19;45.73;102455.28;4855566;29;20050;-80
2022/05/18 08:06:18;;;;;;;2.15;0.80;;;;;;;17.32;44.84;102455.34;4896489;29;20052;-79
2022/05/18 08:08:43;;;;;;;2.08;1.00;;;;;;;17.14;44.55;102415.06;4889354;29;20064;-79
2022/05/18 08:16:36;;;;;;;6.93;1.33;;;;;;;17.40;43.51;102429.81;4889042;29;20048;-80
2022/05/18 08:19:03;;;;;;;3.13;1.00;;;;;;;17.58;43.34;102447.25;4887092;29;20028;-80
2022/05/18 08:21:30;;;;;;;2.03;0.77;;;;;;;17.55;43.34;102434.06;4892177;29;20036;-79
2022/05/18 08:23:57;;;;;;;5.55;0.90;;;;;;;17.67;42.99;102441.59;4883184;29;20062;-80
2022/05/18 08:26:24;;;;;;;3.88;0.80;;;;;;;17.79;42.86;102440.81;4867686;29;20028;-80
2022/05/18 08:28:49;;;;;;;2.05;0.90;;;;;;;17.80;42.06;102441.66;4900699;29;20467;-79
2022/05/18 08:31:17;;;;;;;2.25;0.90;;;;;;;17.98;42.26;102436.44;4884641;29;20051;-80
2022/05/18 08:33:43;;;;;;;1.95;0.63;;;;;;;17.89;41.18;102434.97;4889069;29;20471;-79
2022/05/18 08:36:09;;;;;;;2.17;1.02;;;;;;;18.14;40.71;102437.91;4904081;29;20153;-80
2022/05/18 08:38:35;;;;;;;5.35;0.73;;;;;;;18.30;40.25;102442.09;4914092;29;20032;-81
2022/05/18 08:41:15;;;;;;;1.80;0.75;;;;;;;18.39;39.23;102434.53;4912005;29;20100;-81
2022/05/18 08:43:44;;;;;;;3.60;0.70;;;;;;;18.33;39.06;102433.50;4911646;29;20040;-80
2022/05/18 08:46:23;;;;;;;1.90;0.75;;;;;;;18.40;39.09;102430.75;4889765;29;20469;-80
2022/05/18 08:48:52;;;;;;;1.00;0.65;;;;;;;18.41;39.16;102421.53;4881967;29;20614;-80
2022/05/18 08:51:30;;;;;;;3.13;0.75;;;;;;;18.35;37.81;102427.84;4885388;29;20059;-80
2022/05/18 08:54:17;;;;;;;1.60;0.68;;;;;;;18.34;37.90;102426.16;4902197;29;20123;-80
2022/05/18 08:56:44;;;;;;;2.80;0.70;;;;;;;18.37;37.54;102412.94;4900732;29;20017;-80
2022/05/18 08:59:20;;;;;;;10.02;1.10;;;;;;;18.54;37.08;102424.22;4899331;29;20060;-79
2022/05/18 09:01:51;;;;;;;1.45;0.60;;;;;;;18.36;36.56;102424.91;4906038;29;20016;-81
2022/05/18 09:04:39;;;;;;;9.57;0.70;;;;;;;18.18;35.79;102411.06;4908729;29;20036;-81
2022/05/18 09:07:08;;;;;;;2.00;0.60;;;;;;;18.16;35.63;102400.41;4895841;29;20024;-79
2022/05/18 09:12:31;;;;;;;5.18;0.57;;;;;;;18.50;35.42;102420.25;4907967;29;20047;-80
2022/05/18 09:14:57;;;;;;;1.67;0.63;;;;;;;18.58;35.66;102400.13;4883910;29;20441;-79
2022/05/18 09:17:34;;;;;;;1.95;0.57;;;;;;;18.64;34.84;102423.78;4885520;29;20689;-80
2022/05/18 09:20:18;;;;;;;0.82;0.60;;;;;;;18.59;35.56;102419.00;4903316;29;20039;-80
2022/05/18 09:23:24;;;;;;;4.60;0.63;;;;;;;18.58;34.71;102411.88;4885080;29;20024;-80
2022/05/18 09:26:04;;;;;;;4.65;0.55;;;;;;;18.65;34.30;102418.13;4918784;29;20050;-82
2022/05/18 09:28:53;;;;;;;4.20;0.68;;;;;;;18.68;33.92;102411.44;4919089;29;20019;-83
2022/05/18 09:32:00;;;;;;;1.85;0.60;;;;;;;18.74;33.94;102416.03;4899454;29;20056;-82
2022/05/18 09:34:28;;;;;;;5.10;0.70;;;;;;;18.87;33.68;102409.69;4916527;29;20028;-80
2022/05/18 09:37:15;;;;;;;2.85;0.70;;;;;;;18.89;33.83;102400.25;4899425;29;20099;-83
2022/05/18 09:39:47;;;;;;;1.92;0.70;;;;;;;18.82;34.03;102387.72;4893315;29;20408;-81
2022/05/18 09:42:16;;;;;;;3.65;0.70;;;;;;;18.87;33.76;102364.16;4909472;29;20045;-81
2022/05/18 09:45:06;;;;;;;5.68;0.95;;;;;;;18.82;33.27;102346.81;4918226;29;20036;-81
2022/05/18 09:47:39;;;;;;;1.58;0.60;;;;;;;18.94;33.04;102375.06;4908950;29;20032;-80
2022/05/18 09:50:08;;;;;;;4.65;0.77;;;;;;;18.84;33.08;102344.69;4902674;29;20032;-80
2022/05/18 09:52:37;;;;;;;1.50;0.60;;;;;;;18.77;33.15;102345.56;4902546;29;20055;-80
2022/05/18 09:55:06;;;;;;;2.45;0.80;;;;;;;18.71;33.45;102334.66;4901716;29;20051;-80
2022/05/18 09:57:34;;;;;;;6.07;0.80;;;;;;;18.83;33.54;102346.56;4902603;29;20013;-79
2022/05/18 10:00:06;;;;;;;2.67;0.75;;;;;;;18.72;33.87;102342.63;4884064;29;20048;-80
2022/05/18 10:08:14;;;;;;;3.22;0.70;;;;;;;18.62;33.76;102323.16;4902801;29;20119;-80
2022/05/18 10:10:40;;;;;;;2.42;0.77;;;;;;;18.90;33.78;102363.75;4886290;29;20032;-80
2022/05/18 10:13:11;;;;;;;2.75;0.70;;;;;;;19.09;34.15;102352.97;4899425;29;20032;-80
2022/05/18 10:15:48;;;;;;;1.85;0.65;;;;;;;19.24;33.77;102348.06;4883840;29;20032;-80
2022/05/18 10:18:31;;;;;;;3.15;0.70;;;;;;;19.17;33.53;102320.81;4902008;29;20024;-80
2022/05/18 10:21:16;;;;;;;4.50;1.17;;;;;;;19.28;33.32;102326.63;4883673;29;20112;-80
2022/05/18 10:23:41;;;;;;;;;;;;;;;19.35;33.78;102327.41;4902840;29;20039;-80
2022/05/18 10:26:24;;;;;;;10.33;1.00;;;;;;;19.18;32.78;102305.25;4903146;29;19919;-81
2022/05/18 10:28:58;;;;;;;3.78;0.60;;;;;;;19.19;32.91;102305.03;4899525;29;20267;-81
2022/05/18 10:31:31;;;;;;;4.70;0.80;;;;;;;19.29;33.17;102331.00;4911029;29;20031;-81
2022/05/18 10:34:21;;;;;;;3.10;0.65;;;;;;;19.38;32.84;102324.25;4901103;29;20036;-81
2022/05/18 10:36:53;;;;;;;5.60;0.88;;;;;;;19.44;32.70;102318.72;4910410;29;20314;-80
2022/05/18 10:39:35;;;;;;;1.77;0.70;;;;;;;19.40;32.69;102324.81;4912276;29;20024;-81
2022/05/18 10:42:09;;;;;;;4.60;0.82;;;;;;;19.42;32.62;102317.28;4908732;29;20395;-80
2022/05/18 10:44:36;;;;;;;4.65;1.02;;;;;;;19.46;32.30;102315.75;4908530;29;20036;-81
2022/05/18 10:47:31;;;;;;;4.30;0.73;;;;;;;19.23;32.38;102256.31;4891488;29;20065;-81
2022/05/18 10:50:20;;;;;;;3.10;0.70;;;;;;;19.69;31.40;102290.59;4902516;29;20036;-80
2022/05/18 10:52:47;;;;;;;4.63;0.60;;;;;;;19.75;31.21;102289.72;4912476;29;20026;-81
2022/05/18 10:55:16;;;;;;;1.58;0.70;;;;;;;19.94;30.87;102288.69;4909982;29;20040;-81
2022/05/18 10:58:04;;;;;;;4.53;1.13;;;;;;;19.89;31.29;102282.22;4913134;29;20008;-83
2022/05/18 11:00:58;;;;;;;2.55;0.80;;;;;;;19.80;30.84;102300.81;4926734;29;20011;-82
2022/05/18 11:03:37;;;;;;;3.42;0.77;;;;;;;19.82;30.54;102293.22;4911171;29;20021;-80
2022/05/18 11:06:13;;;;;;;2.00;0.60;;;;;;;19.72;29.86;102262.84;4915287;29;20028;-83
2022/05/18 11:08:40;;;;;;;3.92;0.73;;;;;;;20.10;29.97;102275.53;4917928;29;20025;-82
2022/05/18 11:11:40;;;;;;;1.25;0.57;;;;;;;20.26;29.29;102266.69;4885718;29;20060;-82
2022/05/18 11:14:24;;;;;;;3.35;0.70;;;;;;;20.20;28.71;102264.88;4918976;29;20032;-81
2022/05/18 11:16:55;;;;;;;4.63;0.55;;;;;;;20.28;27.82;102263.75;4922122;29;20016;-83
2022/05/18 11:19:48;;;;;;;2.17;0.50;;;;;;;20.46;28.51;102260.97;4924518;29;20024;-82
2022/05/18 11:22:33;;;;;;;4.72;0.63;;;;;;;20.39;27.57;102250.13;4901390;29;20032;-83
2022/05/18 11:25:13;;;;;;;6.70;0.90;;;;;;;20.27;27.41;102245.69;4922853;29;20027;-81
2022/05/18 11:28:19;;;;;;;1.67;0.50;;;;;;;20.27;28.51;102253.88;4919016;29;20060;-82
2022/05/18 11:30:52;;;;;;;1.95;0.60;;;;;;;20.06;28.13;102247.78;4913417;29;20061;-81
2022/05/18 11:33:26;;;;;;;4.28;0.70;;;;;;;20.10;28.29;102254.50;4916231;29;20008;-82
2022/05/18 11:36:12;;;;;;;2.33;0.68;;;;;;;19.94;28.07;102241.41;4922751;29;20063;-82
2022/05/18 11:38:43;;;;;;;1.42;0.47;;;;;;;20.06;28.58;102238.75;4919265;29;20044;-82
2022/05/18 11:41:42;;;;;;;0.90;0.40;;;;;;;20.09;28.15;102238.31;4918313;29;20032;-81
2022/05/18 11:44:10;;;;;;;1.60;0.60;;;;;;;20.24;27.84;102232.47;4918603;29;20051;-82
2022/05/18 11:47:04;;;;;;;0.68;0.47;;;;;;;20.39;28.33;102232.88;4904683;29;20013;-83
2022/05/18 11:49:43;;;;;;;1.70;0.60;;;;;;;20.49;27.83;102232.34;4835666;29;20046;-82
2022/05/18 11:52:24;;;;;;;3.40;0.88;;;;;;;20.52;28.10;102235.47;4904124;29;20024;-82
2022/05/18 11:55:04;;;;;;;2.35;0.50;;;;;;;20.71;27.68;102229.97;4922508;29;20011;-82